In Rescue
 
Open Full Screen Window  High Contrast Mode
Wind Gusting 00 knots
03
January 24, 2020 8:18 PM EST
Present Weather: Light Rain
Weather Information
Wind Direction
  070 °
Wind Speed
  03 kt (3 mph)
Wind Gust
  00 kt (0 mph)
Altimeter
29.81 in
Visibility
5 SM
Temperature
01° C
34° F
Dewpoint
01° C
34° F
Humidity
100%
1hr Rain Fall
00.00 in.
24hr Rain Fall
00.21 in.
Sky Condition
Overcast @ 1,100 ft
MVFR

METAR KLDM 250118Z AUTO 07003KT 5SM -RA OVC011 01/01 A2981 RMK AO2 T00100010

FAA Disclaimer: The data displayed is for advisory purposes only and is not to be used for flight planning or operations.